Time;durP1;ratioP1;P1;durP2;ratioP2;P2;SDS_P1;SDS_P2;PMS_P1;PMS_P2;Temp;Humidity;BMP_temperature;BMP_pressure;BME280_temperature;BME280_humidity;BME280_pressure;Samples;Min_cycle;Max_cycle;Signal;HPM_P1;HPM_P2
2024/03/14 00:00:22;;;;;;;1.75;1.00;;;2.30;99.90;;;;;;20906080;28;20680;-41
2024/03/14 00:10:24;;;;;;;2.35;1.20;;;2.30;99.90;;;;;;20893618;28;20037;-46
2024/03/14 00:20:30;;;;;;;3.58;1.00;;;2.20;99.90;;;;;;20912633;28;20110;-41
2024/03/14 00:30:31;;;;;;;3.83;1.50;;;2.30;99.90;;;;;;20812085;28;20049;-41
2024/03/14 00:40:35;;;;;;;6.05;1.20;;;2.20;99.90;;;;;;20905251;28;20032;-43
2024/03/14 00:50:37;;;;;;;4.70;1.48;;;2.10;99.90;;;;;;20883991;28;20041;-40
2024/03/14 01:00:43;;;;;;;3.08;1.45;;;1.90;99.90;;;;;;20915632;28;20037;-41
2024/03/14 01:10:45;;;;;;;1.50;0.70;;;2.10;99.90;;;;;;20901635;28;20403;-41
2024/03/14 01:20:48;;;;;;;2.53;1.17;;;2.10;99.90;;;;;;20897341;28;20033;-41
2024/03/14 01:30:52;;;;;;;2.17;1.20;;;2.00;99.90;;;;;;20913099;28;20044;-41
2024/03/14 01:40:54;;;;;;;2.22;1.20;;;2.00;99.90;;;;;;20909238;28;20036;-40
2024/03/14 01:50:56;;;;;;;2.58;1.25;;;2.10;99.90;;;;;;20863044;28;20037;-41
2024/03/14 02:01:00;;;;;;;2.97;1.10;;;1.80;99.90;;;;;;20854745;28;20041;-42
2024/03/14 02:11:03;;;;;;;2.33;0.75;;;1.70;99.90;;;;;;20892609;28;20420;-42
2024/03/14 02:21:13;;;;;;;2.05;0.90;;;1.70;99.90;;;;;;20865845;28;20040;-41
2024/03/14 02:31:15;;;;;;;2.95;0.80;;;1.70;99.90;;;;;;20908067;28;20075;-41
2024/03/14 02:41:17;;;;;;;1.92;0.60;;;1.80;99.90;;;;;;20902282;28;20033;-43
2024/03/14 02:51:19;;;;;;;1.92;0.70;;;1.90;99.90;;;;;;20873764;28;20041;-42
2024/03/14 03:01:24;;;;;;;1.92;1.02;;;1.80;99.90;;;;;;20904825;28;20075;-43
2024/03/14 03:11:27;;;;;;;4.50;2.10;;;1.70;99.90;;;;;;20895566;28;20369;-44
2024/03/14 03:21:28;;;;;;;4.82;2.28;;;1.50;99.90;;;;;;20897910;28;20399;-44
2024/03/14 03:31:30;;;;;;;7.18;3.40;;;1.50;99.90;;;;;;20904501;28;20056;-42
2024/03/14 03:41:32;;;;;;;5.30;3.22;;;1.60;99.90;;;;;;20909044;28;20025;-46
2024/03/14 03:51:35;;;;;;;5.65;3.10;;;1.50;99.90;;;;;;20876770;28;20132;-43
2024/03/14 04:01:36;;;;;;;8.55;4.50;;;1.30;99.90;;;;;;20853781;28;20038;-44
2024/03/14 04:11:38;;;;;;;11.60;4.95;;;1.30;99.90;;;;;;20888169;28;20059;-41
2024/03/14 04:21:40;;;;;;;20.42;9.60;;;1.30;99.90;;;;;;20913450;28;20025;-41
2024/03/14 04:31:42;;;;;;;23.38;11.68;;;1.20;99.90;;;;;;20917571;28;20099;-42
2024/03/14 04:41:44;;;;;;;18.85;9.88;;;1.20;99.90;;;;;;20909874;28;20070;-41
2024/03/14 04:51:46;;;;;;;20.30;10.10;;;1.30;99.90;;;;;;20897543;28;20037;-44
2024/03/14 05:01:48;;;;;;;22.20;10.88;;;1.30;99.90;;;;;;20881737;28;20041;-42
2024/03/14 05:11:50;;;;;;;17.08;7.82;;;1.20;99.90;;;;;;20831267;28;20029;-46
2024/03/14 05:21:51;;;;;;;18.38;7.47;;;1.20;99.90;;;;;;20901259;28;20037;-41
2024/03/14 05:31:54;;;;;;;16.90;7.05;;;1.20;99.90;;;;;;20912900;28;20040;-41
2024/03/14 05:41:56;;;;;;;14.07;6.80;;;1.30;99.90;;;;;;20861844;28;20036;-41
2024/03/14 05:51:58;;;;;;;13.70;6.47;;;1.20;99.90;;;;;;20874614;28;20526;-43
2024/03/14 06:01:59;;;;;;;9.65;4.43;;;1.40;99.90;;;;;;20902076;28;20029;-43
2024/03/14 06:12:01;;;;;;;14.18;7.03;;;1.70;99.90;;;;;;20904216;28;20036;-42
2024/03/14 06:22:05;;;;;;;19.95;10.40;;;1.80;99.90;;;;;;20861748;28;20044;-44
2024/03/14 06:32:07;;;;;;;19.65;9.82;;;2.00;99.90;;;;;;20808559;28;20381;-44
2024/03/14 06:42:09;;;;;;;16.20;8.32;;;2.30;99.90;;;;;;20800399;28;20408;-42
2024/03/14 06:52:12;;;;;;;19.20;10.13;;;2.70;99.90;;;;;;20840035;28;20033;-43
2024/03/14 07:02:18;;;;;;;18.38;9.85;;;3.20;99.90;;;;;;20906310;28;20055;-45
2024/03/14 07:12:21;;;;;;;19.10;10.25;;;3.70;99.90;;;;;;20899937;28;20056;-44
2024/03/14 07:22:24;;;;;;;18.38;10.43;;;4.10;99.90;;;;;;20849727;28;20029;-42
2024/03/14 07:32:28;;;;;;;21.60;11.95;;;4.70;99.90;;;;;;20777269;28;20061;-44
2024/03/14 07:42:31;;;;;;;20.02;11.30;;;5.80;99.90;;;;;;20792072;28;20090;-47
2024/03/14 07:52:32;;;;;;;20.90;10.70;;;6.90;99.90;;;;;;20821388;28;20184;-45
2024/03/14 08:02:35;;;;;;;20.33;12.43;;;7.80;99.90;;;;;;20787543;28;20084;-46
2024/03/14 08:12:37;;;;;;;21.33;11.63;;;8.50;99.90;;;;;;20820691;28;20080;-45
2024/03/14 08:22:39;;;;;;;17.58;11.02;;;9.40;99.90;;;;;;20810130;28;20033;-45
2024/03/14 08:32:43;;;;;;;17.63;11.48;;;10.20;99.90;;;;;;20863614;28;20045;-47
2024/03/14 08:42:45;;;;;;;16.83;10.55;;;10.90;99.90;;;;;;20853031;28;20099;-45
2024/03/14 08:52:47;;;;;;;16.25;8.07;;;11.40;99.90;;;;;;20863282;28;20099;-47
2024/03/14 09:02:49;;;;;;;17.33;10.63;;;11.90;99.90;;;;;;20839071;28;20037;-49
2024/03/14 09:12:55;;;;;;;14.93;10.48;;;12.10;99.90;;;;;;20868643;28;20037;-47
2024/03/14 09:22:56;;;;;;;15.38;10.77;;;12.10;99.90;;;;;;20853290;28;20033;-42
2024/03/14 09:32:58;;;;;;;18.83;10.63;;;12.50;99.90;;;;;;20807027;28;20104;-44
2024/03/14 09:43:01;;;;;;;16.63;9.70;;;13.10;99.90;;;;;;20826582;28;20034;-43
2024/03/14 09:53:03;;;;;;;12.93;8.55;;;13.50;99.90;;;;;;20811241;28;20034;-45
2024/03/14 10:03:07;;;;;;;14.25;9.10;;;13.60;99.90;;;;;;20828531;28;20029;-45
2024/03/14 10:13:10;;;;;;;13.80;8.82;;;13.70;99.60;;;;;;20827310;28;20042;-45
2024/03/14 10:23:16;;;;;;;18.45;10.40;;;13.60;98.50;;;;;;20792766;28;20033;-43
2024/03/14 10:33:21;;;;;;;17.20;10.88;;;13.90;98.80;;;;;;20842125;28;20041;-43
2024/03/14 10:43:31;;;;;;;17.52;11.45;;;14.10;99.10;;;;;;20855172;28;20029;-44
2024/03/14 10:53:36;;;;;;;18.13;12.57;;;14.00;99.30;;;;;;20813280;28;20030;-44
2024/03/14 11:03:38;;;;;;;13.60;10.27;;;13.80;99.90;;;;;;20839852;28;20052;-46
2024/03/14 11:13:44;;;;;;;17.77;11.05;;;13.90;99.90;;;;;;20811552;28;20041;-43
2024/03/14 11:23:49;;;;;;;21.17;12.23;;;14.50;99.30;;;;;;20819575;28;20806;-46
2024/03/14 11:33:52;;;;;;;23.75;15.00;;;14.90;99.10;;;;;;20832632;28;20049;-42
2024/03/14 11:43:56;;;;;;;20.95;14.88;;;15.70;98.00;;;;;;20868336;28;20035;-43
2024/03/14 11:54:00;;;;;;;22.73;15.73;;;15.00;98.50;;;;;;20906580;28;20033;-44
2024/03/14 12:04:02;;;;;;;26.95;18.35;;;14.50;98.80;;;;;;20902349;28;20079;-46
2024/03/14 12:14:04;;;;;;;28.20;18.80;;;13.80;99.90;;;;;;20883043;28;20030;-42
2024/03/14 12:24:12;;;;;;;29.88;20.02;;;13.60;99.90;;;;;;20839974;28;20056;-43
2024/03/14 12:34:14;;;;;;;31.30;20.55;;;13.40;99.90;;;;;;20832412;28;20045;-44
2024/03/14 12:44:18;;;;;;;33.95;23.23;;;13.80;99.90;;;;;;20917024;28;20099;-45
2024/03/14 12:54:21;;;;;;;29.63;21.45;;;14.30;99.90;;;;;;20916350;28;20033;-44
2024/03/14 13:04:23;;;;;;;31.92;22.98;;;15.30;99.90;;;;;;20847563;28;20613;-48
2024/03/14 13:14:25;;;;;;;31.38;23.17;;;16.20;99.10;;;;;;20848151;28;20036;-45
2024/03/14 13:24:27;;;;;;;32.65;22.73;;;16.30;98.60;;;;;;20840009;28;20060;-48
2024/03/14 13:34:31;;;;;;;34.17;23.05;;;16.40;98.80;;;;;;20836524;28;20053;-44
2024/03/14 13:44:33;;;;;;;33.10;23.55;;;16.00;98.70;;;;;;20912907;28;20033;-47
2024/03/14 13:54:35;;;;;;;33.65;23.02;;;15.40;98.80;;;;;;20877808;28;20430;-45
2024/03/14 14:04:38;;;;;;;30.25;22.15;;;14.60;99.90;;;;;;20910813;28;20094;-48
2024/03/14 14:14:40;;;;;;;33.40;24.00;;;14.00;99.90;;;;;;20828914;28;20064;-43
2024/03/14 14:24:42;;;;;;;35.03;24.13;;;12.90;99.90;;;;;;20825514;28;20038;-43
2024/03/14 14:34:44;;;;;;;37.38;25.48;;;12.30;99.90;;;;;;20884612;28;20041;-43
2024/03/14 14:44:47;;;;;;;33.85;22.63;;;11.90;99.90;;;;;;20907962;28;20549;-43
2024/03/14 14:54:50;;;;;;;33.95;24.10;;;11.10;99.90;;;;;;20904080;28;20029;-46
2024/03/14 15:04:52;;;;;;;33.80;22.50;;;10.70;99.90;;;;;;20859802;28;20025;-44
2024/03/14 15:14:54;;;;;;;32.78;21.60;;;10.30;99.90;;;;;;20841159;28;20042;-42
2024/03/14 15:24:56;;;;;;;30.00;21.42;;;10.10;99.90;;;;;;20851094;28;20033;-43
2024/03/14 15:34:58;;;;;;;36.38;23.95;;;9.90;99.90;;;;;;20879684;28;20106;-44
2024/03/14 15:45:00;;;;;;;37.28;23.70;;;9.60;99.90;;;;;;20851959;28;20562;-42
2024/03/14 15:55:02;;;;;;;43.42;28.02;;;9.30;99.90;;;;;;20855667;28;20575;-44
2024/03/14 16:05:10;;;;;;;43.88;29.05;;;9.10;99.90;;;;;;20844252;28;20091;-42
2024/03/14 16:15:12;;;;;;;50.47;33.83;;;8.90;99.90;;;;;;20878139;28;20025;-43
2024/03/14 16:25:17;;;;;;;44.70;26.85;;;8.40;99.90;;;;;;20867141;28;20409;-44
2024/03/14 16:35:28;;;;;;;41.22;26.08;;;7.70;99.90;;;;;;20846933;28;20085;-42
2024/03/14 16:45:31;;;;;;;45.70;26.60;;;7.00;99.90;;;;;;20824907;28;20111;-44
2024/03/14 16:55:34;;;;;;;43.17;27.05;;;6.40;99.90;;;;;;20812308;28;20496;-44
2024/03/14 17:05:36;;;;;;;51.08;27.50;;;5.80;99.90;;;;;;20815359;28;20108;-42
2024/03/14 17:15:42;;;;;;;48.30;28.17;;;5.50;99.90;;;;;;20832622;28;20034;-43
2024/03/14 17:25:47;;;;;;;48.03;28.33;;;5.30;99.90;;;;;;20830876;28;20037;-40
2024/03/14 17:35:49;;;;;;;53.75;30.33;;;5.00;99.90;;;;;;20830604;28;20037;-40
2024/03/14 17:45:51;;;;;;;54.25;31.58;;;4.70;99.90;;;;;;20830161;28;20444;-44
2024/03/14 17:55:53;;;;;;;63.55;34.50;;;4.30;99.90;;;;;;20826991;28;20025;-40
2024/03/14 18:05:54;;;;;;;58.55;34.38;;;4.20;99.90;;;;;;20823170;28;20029;-43
2024/03/14 18:15:56;;;;;;;73.05;39.40;;;4.00;99.90;;;;;;20825756;28;20038;-43
2024/03/14 18:25:59;;;;;;;71.65;37.97;;;3.90;99.90;;;;;;20827069;28;20029;-41
2024/03/14 18:36:02;;;;;;;73.75;40.70;;;3.80;99.90;;;;;;20828335;28;20045;-41
2024/03/14 18:46:05;;;;;;;74.65;38.78;;;3.60;99.90;;;;;;20802206;28;20084;-43
2024/03/14 18:56:09;;;;;;;71.03;39.22;;;3.60;99.90;;;;;;20860343;28;20080;-43
2024/03/14 19:06:13;;;;;;;67.80;36.78;;;3.50;99.90;;;;;;20850870;28;20083;-44
2024/03/14 19:16:14;;;;;;;80.32;41.10;;;3.40;99.90;;;;;;20895540;28;20388;-42
2024/03/14 19:26:17;;;;;;;81.18;41.33;;;3.30;99.90;;;;;;20828493;28;20551;-45
2024/03/14 19:36:19;;;;;;;75.20;40.20;;;3.30;99.90;;;;;;20876854;28;20049;-43
2024/03/14 19:46:20;;;;;;;78.95;41.78;;;3.20;99.90;;;;;;20839538;28;20151;-41
2024/03/14 19:56:23;;;;;;;80.05;42.72;;;3.20;99.90;;;;;;20903993;28;20483;-44
2024/03/14 20:06:26;;;;;;;102.10;51.08;;;3.20;99.90;;;;;;20870889;28;20037;-42
2024/03/14 20:16:29;;;;;;;91.68;47.83;;;3.30;99.90;;;;;;20868521;28;20075;-41
2024/03/14 20:26:34;;;;;;;143.48;67.35;;;3.30;99.90;;;;;;20887535;28;20033;-41
2024/03/14 20:36:36;;;;;;;113.47;55.63;;;3.70;99.90;;;;;;20876507;28;20504;-44
2024/03/14 20:46:38;;;;;;;98.63;48.92;;;3.40;99.90;;;;;;20892673;28;20087;-41
2024/03/14 20:56:44;;;;;;;85.72;44.72;;;3.20;99.90;;;;;;20843127;28;20045;-43
2024/03/14 21:06:46;;;;;;;96.25;47.95;;;3.20;99.90;;;;;;20884823;28;20064;-40
2024/03/14 21:16:48;;;;;;;79.75;40.58;;;3.10;99.90;;;;;;20887819;28;20137;-42
2024/03/14 21:26:50;;;;;;;74.95;38.88;;;2.80;99.90;;;;;;20894703;28;20033;-42
2024/03/14 21:36:52;;;;;;;68.63;35.33;;;2.70;99.90;;;;;;20898252;28;20455;-42
2024/03/14 21:46:54;;;;;;;87.35;43.17;;;2.70;99.90;;;;;;20912890;28;20037;-42
2024/03/14 21:56:56;;;;;;;89.82;44.97;;;2.60;99.90;;;;;;20903224;28;20091;-42
2024/03/14 22:06:58;;;;;;;88.75;44.35;;;2.50;99.90;;;;;;20868737;28;20033;-41
2024/03/14 22:17:00;;;;;;;136.55;62.47;;;2.50;99.90;;;;;;20826243;28;20026;-42
2024/03/14 22:27:03;;;;;;;130.18;60.10;;;2.40;99.90;;;;;;20830664;28;20251;-41
2024/03/14 22:37:10;;;;;;;135.43;60.25;;;2.60;99.90;;;;;;20872553;28;20050;-43
2024/03/14 22:47:12;;;;;;;150.00;64.35;;;2.40;99.90;;;;;;20809100;28;20491;-41
2024/03/14 22:57:15;;;;;;;151.27;66.20;;;2.30;99.90;;;;;;20844566;28;20026;-43
2024/03/14 23:07:17;;;;;;;131.70;58.55;;;2.50;99.90;;;;;;20829478;28;20033;-40
2024/03/14 23:17:19;;;;;;;125.57;56.65;;;2.60;99.90;;;;;;20801728;28;20048;-41
2024/03/14 23:27:21;;;;;;;136.25;58.08;;;2.20;99.90;;;;;;20822409;28;20095;-40
2024/03/14 23:37:23;;;;;;;111.72;51.28;;;2.20;99.90;;;;;;20860743;28;20045;-42
2024/03/14 23:47:25;;;;;;;114.32;52.85;;;2.20;99.90;;;;;;20786758;28;20046;-40
2024/03/14 23:57:27;;;;;;;103.80;50.22;;;2.30;99.90;;;;;;20754358;28;20061;-42
